sensor_id;sensor_type;location;lat;lon;timestamp;pressure;altitude;pressure_sealevel;temperature;humidity
26563;BME280;14217;50.986;5.826;2023-02-03T00:03:52;101996.22;;;17.50;43.50
26563;BME280;14217;50.986;5.826;2023-02-03T00:08:55;101966.97;;;17.53;43.36
26563;BME280;14217;50.986;5.826;2023-02-03T00:13:59;101969.72;;;17.50;43.41
26563;BME280;14217;50.986;5.826;2023-02-03T00:19:02;101956.47;;;17.50;43.70
26563;BME280;14217;50.986;5.826;2023-02-03T00:24:04;101962.63;;;17.52;43.23
26563;BME280;14217;50.986;5.826;2023-02-03T00:29:06;101959.91;;;17.54;43.29
26563;BME280;14217;50.986;5.826;2023-02-03T00:34:08;101953.72;;;17.55;43.47
26563;BME280;14217;50.986;5.826;2023-02-03T00:39:10;101956.38;;;17.53;43.46
26563;BME280;14217;50.986;5.826;2023-02-03T00:44:13;101958.19;;;17.51;43.51
26563;BME280;14217;50.986;5.826;2023-02-03T00:49:15;101960.84;;;17.51;43.45
26563;BME280;14217;50.986;5.826;2023-02-03T00:54:17;101949.34;;;17.52;43.62
26563;BME280;14217;50.986;5.826;2023-02-03T00:59:19;101966.97;;;17.53;43.36
26563;BME280;14217;50.986;5.826;2023-02-03T01:04:21;101950.25;;;17.51;43.47
26563;BME280;14217;50.986;5.826;2023-02-03T01:09:23;101958.16;;;17.53;43.31
26563;BME280;14217;50.986;5.826;2023-02-03T01:14:25;101975.91;;;17.49;43.58
26563;BME280;14217;50.986;5.826;2023-02-03T01:19:27;101981.16;;;17.52;43.66
26563;BME280;14217;50.986;5.826;2023-02-03T01:24:29;101994.41;;;17.52;43.53
26563;BME280;14217;50.986;5.826;2023-02-03T01:29:31;101989.97;;;17.53;43.44
26563;BME280;14217;50.986;5.826;2023-02-03T01:34:33;101991.78;;;17.51;43.55
26563;BME280;14217;50.986;5.826;2023-02-03T01:39:35;102005.91;;;17.51;43.41
26563;BME280;14217;50.986;5.826;2023-02-03T01:44:47;102020.00;;;17.53;43.41
26563;BME280;14217;50.986;5.826;2023-02-03T01:50:05;102014.78;;;17.50;43.44
26563;BME280;14217;50.986;5.826;2023-02-03T01:55:17;102003.25;;;17.51;43.55
26563;BME280;14217;50.986;5.826;2023-02-03T02:00:20;102000.59;;;17.51;43.35
26563;BME280;14217;50.986;5.826;2023-02-03T02:05:40;101994.41;;;17.52;43.35
26563;BME280;14217;50.986;5.826;2023-02-03T02:10:45;101985.56;;;17.52;43.73
26563;BME280;14217;50.986;5.826;2023-02-03T02:16:01;101987.38;;;17.50;43.76
26563;BME280;14217;50.986;5.826;2023-02-03T02:21:29;101993.50;;;17.52;43.69
26563;BME280;14217;50.986;5.826;2023-02-03T02:26:53;101995.31;;;17.50;43.73
26563;BME280;14217;50.986;5.826;2023-02-03T02:37:36;101983.84;;;17.49;43.83
26563;BME280;14217;50.986;5.826;2023-02-03T02:48:00;101956.41;;;17.52;43.55
26563;BME280;14217;50.986;5.826;2023-02-03T02:53:04;101956.47;;;17.50;43.79
26563;BME280;14217;50.986;5.826;2023-02-03T02:58:09;101960.78;;;17.54;43.83
26563;BME280;14217;50.986;5.826;2023-02-03T03:03:23;101968.81;;;17.50;43.59
26563;BME280;14217;50.986;5.826;2023-02-03T03:08:34;101981.06;;;17.55;43.84
26563;BME280;14217;50.986;5.826;2023-02-03T03:13:41;101982.00;;;17.54;43.51
26563;BME280;14217;50.986;5.826;2023-02-03T03:18:48;101976.84;;;17.48;43.82
26563;BME280;14217;50.986;5.826;2023-02-03T03:23:54;101980.31;;;17.50;43.68
26563;BME280;14217;50.986;5.826;2023-02-03T03:29:43;101990.03;;;17.50;43.69
26563;BME280;14217;50.986;5.826;2023-02-03T03:34:49;101986.47;;;17.52;43.61
26563;BME280;14217;50.986;5.826;2023-02-03T03:39:58;101990.84;;;17.53;43.70
26563;BME280;14217;50.986;5.826;2023-02-03T03:45:18;101978.56;;;17.49;43.79
26563;BME280;14217;50.986;5.826;2023-02-03T03:56:11;101965.28;;;17.51;43.78
26563;BME280;14217;50.986;5.826;2023-02-03T04:01:17;101984.66;;;17.54;43.80
26563;BME280;14217;50.986;5.826;2023-02-03T04:06:19;101957.31;;;17.52;43.65
26563;BME280;14217;50.986;5.826;2023-02-03T04:11:21;101952.00;;;17.52;43.79
26563;BME280;14217;50.986;5.826;2023-02-03T04:16:42;101952.88;;;17.53;43.94
26563;BME280;14217;50.986;5.826;2023-02-03T04:21:44;101937.88;;;17.52;43.95
26563;BME280;14217;50.986;5.826;2023-02-03T04:26:46;101946.72;;;17.51;43.84
26563;BME280;14217;50.986;5.826;2023-02-03T04:31:48;101966.97;;;17.53;43.77
26563;BME280;14217;50.986;5.826;2023-02-03T04:36:50;101943.13;;;17.55;43.60
26563;BME280;14217;50.986;5.826;2023-02-03T04:41:52;101959.88;;;17.55;43.77
26563;BME280;14217;50.986;5.826;2023-02-03T04:46:53;101967.84;;;17.54;43.97
26563;BME280;14217;50.986;5.826;2023-02-03T04:51:55;101977.66;;;17.50;43.89
26563;BME280;14217;50.986;5.826;2023-02-03T04:56:57;101964.41;;;17.50;43.84
26563;BME280;14217;50.986;5.826;2023-02-03T05:02:03;101976.69;;;17.54;43.87
26563;BME280;14217;50.986;5.826;2023-02-03T05:07:05;101979.38;;;17.53;43.83
26563;BME280;14217;50.986;5.826;2023-02-03T05:12:07;101971.41;;;17.54;43.99
26563;BME280;14217;50.986;5.826;2023-02-03T05:17:09;101967.84;;;17.54;43.69
26563;BME280;14217;50.986;5.826;2023-02-03T05:22:11;101964.31;;;17.55;43.57
26563;BME280;14217;50.986;5.826;2023-02-03T05:27:13;101965.19;;;17.54;43.76
26563;BME280;14217;50.986;5.826;2023-02-03T05:32:15;101966.97;;;17.53;43.67
26563;BME280;14217;50.986;5.826;2023-02-03T05:37:17;101953.81;;;17.50;43.99
26563;BME280;14217;50.986;5.826;2023-02-03T05:42:19;101951.09;;;17.53;43.98
26563;BME280;14217;50.986;5.826;2023-02-03T05:47:21;101970.59;;;17.51;43.84
26563;BME280;14217;50.986;5.826;2023-02-03T05:52:23;101985.63;;;17.50;43.98
26563;BME280;14217;50.986;5.826;2023-02-03T05:57:25;101983.81;;;17.52;43.88
26563;BME280;14217;50.986;5.826;2023-02-03T06:02:27;101997.94;;;17.51;43.97
26563;BME280;14217;50.986;5.826;2023-02-03T06:07:29;102001.47;;;17.52;44.04
26563;BME280;14217;50.986;5.826;2023-02-03T06:12:31;101998.88;;;17.50;44.00
26563;BME280;14217;50.986;5.826;2023-02-03T06:17:33;101997.94;;;17.51;44.04
26563;BME280;14217;50.986;5.826;2023-02-03T06:22:36;102005.84;;;17.54;43.96
26563;BME280;14217;50.986;5.826;2023-02-03T06:27:38;101997.91;;;17.54;43.63
26563;BME280;14217;50.986;5.826;2023-02-03T06:32:40;102013.84;;;17.51;43.86
26563;BME280;14217;50.986;5.826;2023-02-03T06:37:42;102005.06;;;17.49;43.80
26563;BME280;14217;50.986;5.826;2023-02-03T06:42:47;101998.81;;;17.52;43.83
26563;BME280;14217;50.986;5.826;2023-02-03T06:47:50;102001.41;;;17.55;43.81
26563;BME280;14217;50.986;5.826;2023-02-03T06:52:52;101992.69;;;17.50;43.77
26563;BME280;14217;50.986;5.826;2023-02-03T06:57:54;101970.59;;;17.51;44.01
26563;BME280;14217;50.986;5.826;2023-02-03T07:02:57;101990.84;;;17.53;43.68
26563;BME280;14217;50.986;5.826;2023-02-03T07:08:00;101960.00;;;17.51;43.91
26563;BME280;14217;50.986;5.826;2023-02-03T07:13:06;101959.84;;;17.57;43.76
26563;BME280;14217;50.986;5.826;2023-02-03T07:18:08;101961.72;;;17.52;43.85
26563;BME280;14217;50.986;5.826;2023-02-03T07:23:10;101967.91;;;17.52;43.83
26563;BME280;14217;50.986;5.826;2023-02-03T07:28:12;101962.63;;;17.51;43.97
26563;BME280;14217;50.986;5.826;2023-02-03T07:33:14;101964.38;;;17.52;44.00
26563;BME280;14217;50.986;5.826;2023-02-03T07:38:16;101975.03;;;17.50;43.65
26563;BME280;14217;50.986;5.826;2023-02-03T07:43:18;102002.34;;;17.52;43.67
26563;BME280;14217;50.986;5.826;2023-02-03T07:48:20;101994.47;;;17.49;43.72
26563;BME280;14217;50.986;5.826;2023-02-03T07:53:22;102022.63;;;17.53;43.93
26563;BME280;14217;50.986;5.826;2023-02-03T07:58:24;102025.31;;;17.52;44.98
26563;BME280;14217;50.986;5.826;2023-02-03T08:03:26;102019.97;;;17.55;45.05
26563;BME280;14217;50.986;5.826;2023-02-03T08:08:28;102025.28;;;17.53;45.08
26563;BME280;14217;50.986;5.826;2023-02-03T08:13:30;102011.19;;;17.53;45.05
26563;BME280;14217;50.986;5.826;2023-02-03T08:18:32;102025.31;;;17.52;44.93
26563;BME280;14217;50.986;5.826;2023-02-03T08:23:34;102021.75;;;17.54;45.11
26563;BME280;14217;50.986;5.826;2023-02-03T08:28:36;102030.66;;;17.50;45.56
26563;BME280;14217;50.986;5.826;2023-02-03T08:33:38;102044.78;;;17.51;46.07
26563;BME280;14217;50.986;5.826;2023-02-03T08:38:40;102020.91;;;17.52;45.52
26563;BME280;14217;50.986;5.826;2023-02-03T08:43:43;102058.00;;;17.52;45.37
26563;BME280;14217;50.986;5.826;2023-02-03T08:48:46;102065.97;;;17.52;45.25
26563;BME280;14217;50.986;5.826;2023-02-03T08:53:48;102079.22;;;17.51;45.21
26563;BME280;14217;50.986;5.826;2023-02-03T08:58:50;102067.78;;;17.50;44.96
26563;BME280;14217;50.986;5.826;2023-02-03T09:03:52;102060.72;;;17.49;45.07
26563;BME280;14217;50.986;5.826;2023-02-03T09:08:53;102075.50;;;17.59;45.08
26563;BME280;14217;50.986;5.826;2023-02-03T09:13:55;102088.91;;;17.52;45.17
26563;BME280;14217;50.986;5.826;2023-02-03T09:18:58;102081.97;;;17.46;45.50
26563;BME280;14217;50.986;5.826;2023-02-03T09:24:01;102081.97;;;17.46;45.73
26563;BME280;14217;50.986;5.826;2023-02-03T09:29:03;102080.94;;;17.53;46.01
26563;BME280;14217;50.986;5.826;2023-02-03T09:34:05;102063.22;;;17.55;45.67
26563;BME280;14217;50.986;5.826;2023-02-03T09:39:07;102058.88;;;17.53;45.72
26563;BME280;14217;50.986;5.826;2023-02-03T09:44:25;102078.28;;;17.53;45.51
26563;BME280;14217;50.986;5.826;2023-02-03T09:49:40;102079.22;;;17.52;45.50
26563;BME280;14217;50.986;5.826;2023-02-03T09:55:03;102088.16;;;17.45;45.63
26563;BME280;14217;50.986;5.826;2023-02-03T10:00:18;102093.44;;;17.48;45.55
26563;BME280;14217;50.986;5.826;2023-02-03T10:10:40;102091.53;;;17.55;45.33
26563;BME280;14217;50.986;5.826;2023-02-03T10:20:53;102105.66;;;17.54;45.03
26563;BME280;14217;50.986;5.826;2023-02-03T10:26:00;102106.69;;;17.46;45.24
26563;BME280;14217;50.986;5.826;2023-02-03T10:31:11;102126.94;;;17.49;44.76
26563;BME280;14217;50.986;5.826;2023-02-03T10:36:37;102145.47;;;17.51;44.93
26563;BME280;14217;50.986;5.826;2023-02-03T10:41:41;102125.16;;;17.51;44.80
26563;BME280;14217;50.986;5.826;2023-02-03T10:46:43;102128.72;;;17.50;44.78
26563;BME280;14217;50.986;5.826;2023-02-03T10:51:49;102110.13;;;17.52;44.53
26563;BME280;14217;50.986;5.826;2023-02-03T10:56:52;102106.56;;;17.54;44.57
26563;BME280;14217;50.986;5.826;2023-02-03T11:01:54;102102.13;;;17.53;44.38
26563;BME280;14217;50.986;5.826;2023-02-03T11:07:04;102102.13;;;17.53;44.36
26563;BME280;14217;50.986;5.826;2023-02-03T11:12:17;102096.84;;;17.53;44.41
26563;BME280;14217;50.986;5.826;2023-02-03T11:17:22;102096.78;;;17.56;44.73
26563;BME280;14217;50.986;5.826;2023-02-03T11:22:34;102085.47;;;17.48;45.74
26563;BME280;14217;50.986;5.826;2023-02-03T11:27:37;102081.94;;;17.47;45.60
26563;BME280;14217;50.986;5.826;2023-02-03T11:32:41;102084.50;;;17.52;45.93
26563;BME280;14217;50.986;5.826;2023-02-03T11:37:50;102075.44;;;17.62;45.65
26563;BME280;14217;50.986;5.826;2023-02-03T12:09:47;102101.94;;;17.62;46.10
26563;BME280;14217;50.986;5.826;2023-02-03T12:36:51;102110.84;;;17.60;46.92
26563;BME280;14217;50.986;5.826;2023-02-03T12:42:03;102092.34;;;17.58;46.20
26563;BME280;14217;50.986;5.826;2023-02-03T12:52:26;102089.53;;;17.64;46.70
26563;BME280;14217;50.986;5.826;2023-02-03T12:57:42;102099.44;;;17.56;46.45
26563;BME280;14217;50.986;5.826;2023-02-03T13:03:10;102103.84;;;17.56;46.11
26563;BME280;14217;50.986;5.826;2023-02-03T13:13:35;102103.81;;;17.57;45.94
26563;BME280;14217;50.986;5.826;2023-02-03T13:18:44;102112.53;;;17.62;45.72
26563;BME280;14217;50.986;5.826;2023-02-03T13:23:49;102117.03;;;17.60;45.65
26563;BME280;14217;50.986;5.826;2023-02-03T13:44:36;102121.44;;;17.60;45.56
26563;BME280;14217;50.986;5.826;2023-02-03T13:49:43;102101.06;;;17.62;45.60
26563;BME280;14217;50.986;5.826;2023-02-03T13:54:48;102089.63;;;17.60;45.37
26563;BME280;14217;50.986;5.826;2023-02-03T13:59:50;102102.16;;;17.52;46.47
26563;BME280;14217;50.986;5.826;2023-02-03T14:04:58;102107.03;;;17.73;46.19
26563;BME280;14217;50.986;5.826;2023-02-03T14:10:21;102105.41;;;17.66;46.17
26563;BME280;14217;50.986;5.826;2023-02-03T14:20:37;102115.19;;;17.62;46.05
26563;BME280;14217;50.986;5.826;2023-02-03T14:25:47;102121.34;;;17.64;46.03
26563;BME280;14217;50.986;5.826;2023-02-03T14:31:09;102125.84;;;17.61;46.22
26563;BME280;14217;50.986;5.826;2023-02-03T14:36:42;102133.06;;;17.54;47.94
26563;BME280;14217;50.986;5.826;2023-02-03T14:41:55;102136.94;;;17.80;47.60
26563;BME280;14217;50.986;5.826;2023-02-03T14:47:09;102146.84;;;17.70;47.32
26563;BME280;14217;50.986;5.826;2023-02-03T14:58:03;102151.56;;;17.56;48.65
26563;BME280;14217;50.986;5.826;2023-02-03T15:08:40;102152.25;;;17.65;48.63
26563;BME280;14217;50.986;5.826;2023-02-03T15:13:43;102169.25;;;17.54;49.59
26563;BME280;14217;50.986;5.826;2023-02-03T15:18:52;102173.38;;;17.23;51.27
26563;BME280;14217;50.986;5.826;2023-02-03T15:23:55;102178.66;;;17.25;51.72
26563;BME280;14217;50.986;5.826;2023-02-03T15:29:00;102168.81;;;17.32;51.61
26563;BME280;14217;50.986;5.826;2023-02-03T15:34:10;102175.06;;;17.27;52.20
26563;BME280;14217;50.986;5.826;2023-02-03T15:39:42;102186.50;;;17.30;51.60
26563;BME280;14217;50.986;5.826;2023-02-03T15:44:56;102174.69;;;17.47;51.42
26563;BME280;14217;50.986;5.826;2023-02-03T15:50:06;102178.91;;;17.58;52.10
26563;BME280;14217;50.986;5.826;2023-02-03T15:55:17;102184.28;;;17.55;52.41
26563;BME280;14217;50.986;5.826;2023-02-03T16:00:36;102181.53;;;17.59;52.65
26563;BME280;14217;50.986;5.826;2023-02-03T16:05:39;102193.81;;;17.63;51.36
26563;BME280;14217;50.986;5.826;2023-02-03T16:10:43;102199.00;;;17.71;50.96
26563;BME280;14217;50.986;5.826;2023-02-03T16:16:05;102207.06;;;17.65;49.97
26563;BME280;14217;50.986;5.826;2023-02-03T16:22:24;102217.53;;;17.71;48.81
26563;BME280;14217;50.986;5.826;2023-02-03T16:26:46;102232.59;;;17.69;48.68
26563;BME280;14217;50.986;5.826;2023-02-03T16:31:48;102232.53;;;17.72;48.14
26563;BME280;14217;50.986;5.826;2023-02-03T16:37:21;102232.63;;;17.67;48.50
26563;BME280;14217;50.986;5.826;2023-02-03T16:42:42;102244.22;;;17.62;48.64
26563;BME280;14217;50.986;5.826;2023-02-03T16:48:03;102250.50;;;17.56;48.52
26563;BME280;14217;50.986;5.826;2023-02-03T16:53:26;102261.75;;;17.69;48.25
26563;BME280;14217;50.986;5.826;2023-02-03T16:58:28;102254.59;;;17.73;48.08
26563;BME280;14217;50.986;5.826;2023-02-03T17:03:32;102266.97;;;17.74;47.84
26563;BME280;14217;50.986;5.826;2023-02-03T17:08:36;102263.06;;;17.45;48.87
26563;BME280;14217;50.986;5.826;2023-02-03T17:13:38;102284.34;;;17.39;49.07
26563;BME280;14217;50.986;5.826;2023-02-03T17:18:40;102284.81;;;17.64;48.39
26563;BME280;14217;50.986;5.826;2023-02-03T17:23:43;102282.16;;;17.65;49.46
26563;BME280;14217;50.986;5.826;2023-02-03T17:28:45;102293.78;;;17.57;51.17
26563;BME280;14217;50.986;5.826;2023-02-03T17:33:51;102283.84;;;17.70;50.53
26563;BME280;14217;50.986;5.826;2023-02-03T17:38:54;102291.69;;;17.74;50.35
26563;BME280;14217;50.986;5.826;2023-02-03T17:44:11;102295.97;;;17.81;49.65
26563;BME280;14217;50.986;5.826;2023-02-03T17:49:27;102293.50;;;17.72;49.92
26563;BME280;14217;50.986;5.826;2023-02-03T17:54:43;102298.53;;;17.89;49.23
26563;BME280;14217;50.986;5.826;2023-02-03T17:59:45;102308.38;;;17.81;48.95
26563;BME280;14217;50.986;5.826;2023-02-03T18:04:47;102324.19;;;17.87;48.68
26563;BME280;14217;50.986;5.826;2023-02-03T18:09:49;102323.22;;;17.94;48.69
26563;BME280;14217;50.986;5.826;2023-02-03T18:14:51;102335.63;;;17.91;48.57
26563;BME280;14217;50.986;5.826;2023-02-03T18:19:53;102341.63;;;18.00;48.27
26563;BME280;14217;50.986;5.826;2023-02-03T18:24:56;102351.47;;;17.95;48.36
26563;BME280;14217;50.986;5.826;2023-02-03T18:29:59;102366.31;;;18.04;47.92
26563;BME280;14217;50.986;5.826;2023-02-03T18:35:01;102368.97;;;18.04;48.05
26563;BME280;14217;50.986;5.826;2023-02-03T18:40:03;102369.25;;;17.90;48.04
26563;BME280;14217;50.986;5.826;2023-02-03T18:45:06;102389.25;;;18.06;47.73
26563;BME280;14217;50.986;5.826;2023-02-03T18:50:08;102394.69;;;18.00;47.92
26563;BME280;14217;50.986;5.826;2023-02-03T18:55:10;102394.88;;;17.90;48.08
26563;BME280;14217;50.986;5.826;2023-02-03T19:00:14;102407.78;;;18.11;47.68
26563;BME280;14217;50.986;5.826;2023-02-03T19:05:16;102403.34;;;18.10;47.66
26563;BME280;14217;50.986;5.826;2023-02-03T19:10:18;102405.28;;;18.00;48.00
26563;BME280;14217;50.986;5.826;2023-02-03T19:15:20;102403.47;;;18.02;48.50
26563;BME280;14217;50.986;5.826;2023-02-03T19:20:22;102416.03;;;17.94;48.78
26563;BME280;14217;50.986;5.826;2023-02-03T19:25:24;102410.66;;;17.97;48.79
26563;BME280;14217;50.986;5.826;2023-02-03T19:30:27;102421.19;;;18.00;48.37
26563;BME280;14217;50.986;5.826;2023-02-03T19:35:30;102418.41;;;18.08;48.26
26563;BME280;14217;50.986;5.826;2023-02-03T19:40:34;102420.88;;;18.19;47.90
26563;BME280;14217;50.986;5.826;2023-02-03T19:45:36;102429.66;;;18.24;47.92
26563;BME280;14217;50.986;5.826;2023-02-03T19:50:37;102436.00;;;18.15;47.82
26563;BME280;14217;50.986;5.826;2023-02-03T19:55:42;102434.84;;;18.30;47.88
26563;BME280;14217;50.986;5.826;2023-02-03T20:00:44;102434.06;;;18.23;47.72
26563;BME280;14217;50.986;5.826;2023-02-03T20:05:46;102435.84;;;18.23;47.69
26563;BME280;14217;50.986;5.826;2023-02-03T20:10:48;102430.56;;;18.21;48.05
26563;BME280;14217;50.986;5.826;2023-02-03T20:15:50;102432.59;;;18.07;53.60
26563;BME280;14217;50.986;5.826;2023-02-03T20:20:54;102431.81;;;18.00;52.12
26563;BME280;14217;50.986;5.826;2023-02-03T20:25:57;102444.75;;;18.20;51.28
26563;BME280;14217;50.986;5.826;2023-02-03T20:31:00;102461.34;;;18.32;50.88
26563;BME280;14217;50.986;5.826;2023-02-03T20:36:02;102472.03;;;18.27;50.83
26563;BME280;14217;50.986;5.826;2023-02-03T20:41:08;102471.22;;;18.23;50.73
26563;BME280;14217;50.986;5.826;2023-02-03T20:46:13;102474.81;;;18.19;50.56
26563;BME280;14217;50.986;5.826;2023-02-03T20:51:17;102471.19;;;18.25;50.05
26563;BME280;14217;50.986;5.826;2023-02-03T20:56:19;102476.66;;;18.16;53.84
26563;BME280;14217;50.986;5.826;2023-02-03T21:01:22;102482.09;;;18.06;52.20
26563;BME280;14217;50.986;5.826;2023-02-03T21:06:25;102490.50;;;18.35;51.60
26563;BME280;14217;50.986;5.826;2023-02-03T21:11:28;102494.00;;;18.37;51.06
26563;BME280;14217;50.986;5.826;2023-02-03T21:16:39;102494.97;;;18.31;51.08
26563;BME280;14217;50.986;5.826;2023-02-03T21:21:41;102491.63;;;18.20;51.12
26563;BME280;14217;50.986;5.826;2023-02-03T21:26:43;102496.78;;;18.29;50.82
26563;BME280;14217;50.986;5.826;2023-02-03T21:31:45;102503.88;;;18.28;50.77
26563;BME280;14217;50.986;5.826;2023-02-03T21:36:47;102503.75;;;18.36;50.37
26563;BME280;14217;50.986;5.826;2023-02-03T21:41:48;102493.25;;;18.28;50.50
26563;BME280;14217;50.986;5.826;2023-02-03T21:46:50;102503.69;;;18.39;50.01
26563;BME280;14217;50.986;5.826;2023-02-03T21:51:52;102509.88;;;18.38;50.21
26563;BME280;14217;50.986;5.826;2023-02-03T21:56:56;102516.09;;;18.37;49.78
26563;BME280;14217;50.986;5.826;2023-02-03T22:02:00;102511.75;;;18.33;50.22
26563;BME280;14217;50.986;5.826;2023-02-03T22:07:13;102515.31;;;18.32;49.87
26563;BME280;14217;50.986;5.826;2023-02-03T22:12:15;102516.19;;;18.33;49.87
26563;BME280;14217;50.986;5.826;2023-02-03T22:17:17;102510.81;;;18.36;49.51
26563;BME280;14217;50.986;5.826;2023-02-03T22:22:19;102528.88;;;18.14;51.37
26563;BME280;14217;50.986;5.826;2023-02-03T22:27:21;102534.19;;;18.12;57.41
26563;BME280;14217;50.986;5.826;2023-02-03T22:32:26;102543.97;;;18.10;56.45
26563;BME280;14217;50.986;5.826;2023-02-03T22:37:28;102548.41;;;18.06;55.63
26563;BME280;14217;50.986;5.826;2023-02-03T22:42:32;102546.72;;;18.02;55.62
26563;BME280;14217;50.986;5.826;2023-02-03T22:47:34;102559.00;;;18.10;54.74
26563;BME280;14217;50.986;5.826;2023-02-03T22:52:36;102570.56;;;18.05;54.95
26563;BME280;14217;50.986;5.826;2023-02-03T22:57:39;102577.66;;;18.03;54.51
26563;BME280;14217;50.986;5.826;2023-02-03T23:02:41;102576.72;;;18.07;53.99
26563;BME280;14217;50.986;5.826;2023-02-03T23:07:44;102586.03;;;18.35;52.68
26563;BME280;14217;50.986;5.826;2023-02-03T23:12:46;102595.56;;;18.46;51.99
26563;BME280;14217;50.986;5.826;2023-02-03T23:17:48;102598.38;;;18.37;51.94
26563;BME280;14217;50.986;5.826;2023-02-03T23:22:50;102604.44;;;18.45;51.19
26563;BME280;14217;50.986;5.826;2023-02-03T23:27:52;102603.75;;;18.34;51.55
26563;BME280;14217;50.986;5.826;2023-02-03T23:32:54;102615.31;;;18.30;51.40
26563;BME280;14217;50.986;5.826;2023-02-03T23:37:56;102625.00;;;18.29;51.10
26563;BME280;14217;50.986;5.826;2023-02-03T23:42:58;102625.06;;;18.28;50.76
26563;BME280;14217;50.986;5.826;2023-02-03T23:47:59;102625.88;;;18.32;50.55
26563;BME280;14217;50.986;5.826;2023-02-03T23:53:01;102641.88;;;18.27;50.82
26563;BME280;14217;50.986;5.826;2023-02-03T23:58:04;102626.88;;;18.23;50.76
